sensor_id;sensor_type;location;lat;lon;timestamp;P1;durP1;ratioP1;P2;durP2;ratioP2
7051;SDS011;3567;52.444;13.556;2023-02-28T00:00:32;4.70;;;3.00;;
7051;SDS011;3567;52.444;13.556;2023-02-28T00:02:58;5.75;;;3.20;;
7051;SDS011;3567;52.444;13.556;2023-02-28T00:05:24;4.18;;;3.17;;
7051;SDS011;3567;52.444;13.556;2023-02-28T00:07:51;4.38;;;3.05;;
7051;SDS011;3567;52.444;13.556;2023-02-28T00:10:20;5.45;;;2.80;;
7051;SDS011;3567;52.444;13.556;2023-02-28T00:12:48;6.05;;;3.08;;
7051;SDS011;3567;52.444;13.556;2023-02-28T00:15:14;6.40;;;3.83;;
7051;SDS011;3567;52.444;13.556;2023-02-28T00:17:40;9.55;;;3.60;;
7051;SDS011;3567;52.444;13.556;2023-02-28T00:20:06;4.32;;;2.97;;
7051;SDS011;3567;52.444;13.556;2023-02-28T00:22:35;5.28;;;3.17;;
7051;SDS011;3567;52.444;13.556;2023-02-28T00:25:02;4.18;;;3.13;;
7051;SDS011;3567;52.444;13.556;2023-02-28T00:27:28;4.72;;;3.58;;
7051;SDS011;3567;52.444;13.556;2023-02-28T00:29:54;6.30;;;3.65;;
7051;SDS011;3567;52.444;13.556;2023-02-28T00:32:19;6.28;;;3.03;;
7051;SDS011;3567;52.444;13.556;2023-02-28T00:34:44;8.35;;;4.03;;
7051;SDS011;3567;52.444;13.556;2023-02-28T00:37:10;4.13;;;3.35;;
7051;SDS011;3567;52.444;13.556;2023-02-28T00:39:37;4.57;;;3.35;;
7051;SDS011;3567;52.444;13.556;2023-02-28T00:42:03;5.63;;;3.40;;
7051;SDS011;3567;52.444;13.556;2023-02-28T00:44:29;5.45;;;3.78;;
7051;SDS011;3567;52.444;13.556;2023-02-28T00:46:56;6.82;;;3.88;;
7051;SDS011;3567;52.444;13.556;2023-02-28T00:49:22;5.43;;;3.45;;
7051;SDS011;3567;52.444;13.556;2023-02-28T00:51:48;3.65;;;3.08;;
7051;SDS011;3567;52.444;13.556;2023-02-28T00:54:13;7.40;;;4.13;;
7051;SDS011;3567;52.444;13.556;2023-02-28T00:56:39;4.32;;;3.92;;
7051;SDS011;3567;52.444;13.556;2023-02-28T00:59:04;5.43;;;3.70;;
7051;SDS011;3567;52.444;13.556;2023-02-28T01:01:30;4.60;;;3.03;;
7051;SDS011;3567;52.444;13.556;2023-02-28T01:03:55;4.53;;;3.53;;
7051;SDS011;3567;52.444;13.556;2023-02-28T01:06:21;6.95;;;3.55;;
7051;SDS011;3567;52.444;13.556;2023-02-28T01:08:46;4.93;;;3.70;;
7051;SDS011;3567;52.444;13.556;2023-02-28T01:11:12;9.57;;;3.75;;
7051;SDS011;3567;52.444;13.556;2023-02-28T01:13:41;4.88;;;3.85;;
7051;SDS011;3567;52.444;13.556;2023-02-28T01:16:07;5.40;;;3.47;;
7051;SDS011;3567;52.444;13.556;2023-02-28T01:18:32;4.95;;;3.78;;
7051;SDS011;3567;52.444;13.556;2023-02-28T01:20:58;7.47;;;3.75;;
7051;SDS011;3567;52.444;13.556;2023-02-28T01:23:27;5.47;;;3.92;;
7051;SDS011;3567;52.444;13.556;2023-02-28T01:25:53;5.97;;;3.95;;
7051;SDS011;3567;52.444;13.556;2023-02-28T01:28:18;7.97;;;4.53;;
7051;SDS011;3567;52.444;13.556;2023-02-28T01:30:47;6.22;;;4.07;;
7051;SDS011;3567;52.444;13.556;2023-02-28T01:33:13;4.60;;;3.42;;
7051;SDS011;3567;52.444;13.556;2023-02-28T01:35:39;7.32;;;4.38;;
7051;SDS011;3567;52.444;13.556;2023-02-28T01:38:04;5.63;;;3.40;;
7051;SDS011;3567;52.444;13.556;2023-02-28T01:40:29;8.00;;;4.03;;
7051;SDS011;3567;52.444;13.556;2023-02-28T01:42:55;5.50;;;3.33;;
7051;SDS011;3567;52.444;13.556;2023-02-28T01:47:55;5.22;;;3.15;;
7051;SDS011;3567;52.444;13.556;2023-02-28T01:50:24;5.25;;;3.42;;
7051;SDS011;3567;52.444;13.556;2023-02-28T01:52:52;6.10;;;2.92;;
7051;SDS011;3567;52.444;13.556;2023-02-28T01:55:20;6.13;;;3.78;;
7051;SDS011;3567;52.444;13.556;2023-02-28T01:57:52;7.65;;;3.65;;
7051;SDS011;3567;52.444;13.556;2023-02-28T02:00:22;6.05;;;3.65;;
7051;SDS011;3567;52.444;13.556;2023-02-28T02:02:53;7.93;;;4.07;;
7051;SDS011;3567;52.444;13.556;2023-02-28T02:05:23;5.03;;;3.20;;
7051;SDS011;3567;52.444;13.556;2023-02-28T02:07:50;6.65;;;3.78;;
7051;SDS011;3567;52.444;13.556;2023-02-28T02:10:20;8.18;;;4.13;;
7051;SDS011;3567;52.444;13.556;2023-02-28T02:35:12;5.63;;;4.03;;
7051;SDS011;3567;52.444;13.556;2023-02-28T02:37:47;5.18;;;3.28;;
7051;SDS011;3567;52.444;13.556;2023-02-28T02:40:19;6.70;;;3.80;;
7051;SDS011;3567;52.444;13.556;2023-02-28T02:42:55;4.95;;;2.97;;
7051;SDS011;3567;52.444;13.556;2023-02-28T02:48:29;5.57;;;3.20;;
7051;SDS011;3567;52.444;13.556;2023-02-28T02:50:58;5.22;;;3.38;;
7051;SDS011;3567;52.444;13.556;2023-02-28T02:53:30;8.02;;;3.30;;
7051;SDS011;3567;52.444;13.556;2023-02-28T02:56:00;9.93;;;3.60;;
7051;SDS011;3567;52.444;13.556;2023-02-28T02:58:29;5.50;;;3.45;;
7051;SDS011;3567;52.444;13.556;2023-02-28T03:01:00;4.75;;;3.08;;
7051;SDS011;3567;52.444;13.556;2023-02-28T03:03:28;5.47;;;3.75;;
7051;SDS011;3567;52.444;13.556;2023-02-28T03:05:59;7.40;;;3.88;;
7051;SDS011;3567;52.444;13.556;2023-02-28T03:08:26;4.45;;;3.33;;
7051;SDS011;3567;52.444;13.556;2023-02-28T03:10:58;5.90;;;4.00;;
7051;SDS011;3567;52.444;13.556;2023-02-28T03:21:22;6.35;;;3.50;;
7051;SDS011;3567;52.444;13.556;2023-02-28T03:26:34;4.18;;;3.03;;
7051;SDS011;3567;52.444;13.556;2023-02-28T03:29:05;10.68;;;3.83;;
7051;SDS011;3567;52.444;13.556;2023-02-28T03:31:33;7.85;;;4.20;;
7051;SDS011;3567;52.444;13.556;2023-02-28T03:34:06;7.18;;;3.47;;
7051;SDS011;3567;52.444;13.556;2023-02-28T03:36:38;6.03;;;3.83;;
7051;SDS011;3567;52.444;13.556;2023-02-28T03:39:20;4.60;;;3.70;;
7051;SDS011;3567;52.444;13.556;2023-02-28T03:41:52;7.05;;;3.88;;
7051;SDS011;3567;52.444;13.556;2023-02-28T03:44:34;7.30;;;4.22;;
7051;SDS011;3567;52.444;13.556;2023-02-28T03:47:26;4.70;;;3.83;;
7051;SDS011;3567;52.444;13.556;2023-02-28T03:50:06;6.50;;;4.10;;
7051;SDS011;3567;52.444;13.556;2023-02-28T03:53:01;8.10;;;4.15;;
7051;SDS011;3567;52.444;13.556;2023-02-28T03:55:34;6.93;;;4.05;;
7051;SDS011;3567;52.444;13.556;2023-02-28T04:03:43;6.18;;;4.07;;
7051;SDS011;3567;52.444;13.556;2023-02-28T04:06:12;6.80;;;4.03;;
7051;SDS011;3567;52.444;13.556;2023-02-28T04:08:41;8.85;;;4.28;;
7051;SDS011;3567;52.444;13.556;2023-02-28T04:11:11;10.82;;;3.92;;
7051;SDS011;3567;52.444;13.556;2023-02-28T04:13:43;6.25;;;4.18;;
7051;SDS011;3567;52.444;13.556;2023-02-28T04:16:09;5.63;;;3.95;;
7051;SDS011;3567;52.444;13.556;2023-02-28T04:18:41;6.03;;;4.25;;
7051;SDS011;3567;52.444;13.556;2023-02-28T04:21:10;7.80;;;3.47;;
7051;SDS011;3567;52.444;13.556;2023-02-28T04:23:36;7.15;;;4.63;;
7051;SDS011;3567;52.444;13.556;2023-02-28T04:26:02;5.10;;;3.67;;
7051;SDS011;3567;52.444;13.556;2023-02-28T04:28:27;8.20;;;4.70;;
7051;SDS011;3567;52.444;13.556;2023-02-28T04:30:56;7.32;;;3.88;;
7051;SDS011;3567;52.444;13.556;2023-02-28T04:33:23;6.43;;;4.30;;
7051;SDS011;3567;52.444;13.556;2023-02-28T04:35:53;6.10;;;3.90;;
7051;SDS011;3567;52.444;13.556;2023-02-28T04:38:25;5.95;;;3.58;;
7051;SDS011;3567;52.444;13.556;2023-02-28T04:40:50;5.72;;;4.40;;
7051;SDS011;3567;52.444;13.556;2023-02-28T04:43:16;7.65;;;4.60;;
7051;SDS011;3567;52.444;13.556;2023-02-28T04:45:41;7.57;;;4.75;;
7051;SDS011;3567;52.444;13.556;2023-02-28T04:48:06;7.93;;;4.57;;
7051;SDS011;3567;52.444;13.556;2023-02-28T04:50:32;8.25;;;4.63;;
7051;SDS011;3567;52.444;13.556;2023-02-28T04:52:57;7.75;;;4.40;;
7051;SDS011;3567;52.444;13.556;2023-02-28T04:55:23;9.05;;;5.50;;
7051;SDS011;3567;52.444;13.556;2023-02-28T04:57:49;6.70;;;4.00;;
7051;SDS011;3567;52.444;13.556;2023-02-28T05:00:14;7.93;;;5.25;;
7051;SDS011;3567;52.444;13.556;2023-02-28T05:02:41;7.57;;;4.30;;
7051;SDS011;3567;52.444;13.556;2023-02-28T05:05:07;7.80;;;4.95;;
7051;SDS011;3567;52.444;13.556;2023-02-28T05:07:33;5.50;;;4.35;;
7051;SDS011;3567;52.444;13.556;2023-02-28T05:09:58;7.55;;;4.18;;
7051;SDS011;3567;52.444;13.556;2023-02-28T05:12:24;7.93;;;4.65;;
7051;SDS011;3567;52.444;13.556;2023-02-28T05:14:49;12.68;;;4.80;;
7051;SDS011;3567;52.444;13.556;2023-02-28T05:17:15;8.65;;;5.10;;
7051;SDS011;3567;52.444;13.556;2023-02-28T05:19:40;9.38;;;5.05;;
7051;SDS011;3567;52.444;13.556;2023-02-28T05:22:10;9.95;;;5.38;;
7051;SDS011;3567;52.444;13.556;2023-02-28T05:24:38;9.60;;;5.63;;
7051;SDS011;3567;52.444;13.556;2023-02-28T05:27:03;10.95;;;5.70;;
7051;SDS011;3567;52.444;13.556;2023-02-28T05:29:29;10.48;;;4.85;;
7051;SDS011;3567;52.444;13.556;2023-02-28T05:31:54;8.00;;;4.93;;
7051;SDS011;3567;52.444;13.556;2023-02-28T05:34:20;11.10;;;5.30;;
7051;SDS011;3567;52.444;13.556;2023-02-28T05:36:45;10.57;;;4.88;;
7051;SDS011;3567;52.444;13.556;2023-02-28T05:39:11;8.13;;;4.85;;
7051;SDS011;3567;52.444;13.556;2023-02-28T05:41:38;9.52;;;5.43;;
7051;SDS011;3567;52.444;13.556;2023-02-28T05:44:05;7.72;;;5.00;;
7051;SDS011;3567;52.444;13.556;2023-02-28T05:46:30;8.93;;;6.30;;
7051;SDS011;3567;52.444;13.556;2023-02-28T05:48:55;9.75;;;4.68;;
7051;SDS011;3567;52.444;13.556;2023-02-28T05:51:22;11.27;;;7.10;;
7051;SDS011;3567;52.444;13.556;2023-02-28T05:53:48;9.65;;;6.30;;
7051;SDS011;3567;52.444;13.556;2023-02-28T05:56:14;8.88;;;5.88;;
7051;SDS011;3567;52.444;13.556;2023-02-28T05:58:40;13.10;;;7.28;;
7051;SDS011;3567;52.444;13.556;2023-02-28T06:01:22;12.25;;;6.80;;
7051;SDS011;3567;52.444;13.556;2023-02-28T06:04:05;10.50;;;6.80;;
7051;SDS011;3567;52.444;13.556;2023-02-28T06:06:32;11.20;;;6.78;;
7051;SDS011;3567;52.444;13.556;2023-02-28T06:08:59;11.63;;;6.75;;
7051;SDS011;3567;52.444;13.556;2023-02-28T06:11:25;10.35;;;6.28;;
7051;SDS011;3567;52.444;13.556;2023-02-28T06:13:55;11.88;;;6.60;;
7051;SDS011;3567;52.444;13.556;2023-02-28T06:16:22;10.60;;;6.22;;
7051;SDS011;3567;52.444;13.556;2023-02-28T06:18:48;10.18;;;6.82;;
7051;SDS011;3567;52.444;13.556;2023-02-28T06:21:13;13.48;;;7.45;;
7051;SDS011;3567;52.444;13.556;2023-02-28T06:23:39;16.27;;;8.25;;
7051;SDS011;3567;52.444;13.556;2023-02-28T06:26:04;13.52;;;7.63;;
7051;SDS011;3567;52.444;13.556;2023-02-28T06:28:30;11.95;;;6.55;;
7051;SDS011;3567;52.444;13.556;2023-02-28T06:30:55;8.23;;;5.35;;
7051;SDS011;3567;52.444;13.556;2023-02-28T06:33:21;10.00;;;6.15;;
7051;SDS011;3567;52.444;13.556;2023-02-28T06:35:47;14.68;;;6.35;;
7051;SDS011;3567;52.444;13.556;2023-02-28T06:38:15;12.75;;;6.35;;
7051;SDS011;3567;52.444;13.556;2023-02-28T06:40:40;9.65;;;5.78;;
7051;SDS011;3567;52.444;13.556;2023-02-28T06:43:06;14.32;;;7.55;;
7051;SDS011;3567;52.444;13.556;2023-02-28T06:45:31;9.88;;;6.07;;
7051;SDS011;3567;52.444;13.556;2023-02-28T06:47:57;11.10;;;6.60;;
7051;SDS011;3567;52.444;13.556;2023-02-28T06:50:23;13.73;;;6.88;;
7051;SDS011;3567;52.444;13.556;2023-02-28T06:52:48;13.18;;;6.88;;
7051;SDS011;3567;52.444;13.556;2023-02-28T06:55:18;13.68;;;6.90;;
7051;SDS011;3567;52.444;13.556;2023-02-28T06:57:44;13.02;;;7.43;;
7051;SDS011;3567;52.444;13.556;2023-02-28T07:00:09;9.88;;;6.30;;
7051;SDS011;3567;52.444;13.556;2023-02-28T07:02:35;11.73;;;7.07;;
7051;SDS011;3567;52.444;13.556;2023-02-28T07:05:02;10.73;;;6.47;;
7051;SDS011;3567;52.444;13.556;2023-02-28T07:07:29;10.63;;;7.65;;
7051;SDS011;3567;52.444;13.556;2023-02-28T07:09:54;11.95;;;7.68;;
7051;SDS011;3567;52.444;13.556;2023-02-28T07:12:20;16.05;;;7.90;;
7051;SDS011;3567;52.444;13.556;2023-02-28T07:17:12;16.60;;;8.63;;
7051;SDS011;3567;52.444;13.556;2023-02-28T07:19:38;25.02;;;11.68;;
7051;SDS011;3567;52.444;13.556;2023-02-28T07:22:04;18.17;;;10.60;;
7051;SDS011;3567;52.444;13.556;2023-02-28T07:24:29;23.17;;;10.35;;
7051;SDS011;3567;52.444;13.556;2023-02-28T07:26:55;15.98;;;9.18;;
7051;SDS011;3567;52.444;13.556;2023-02-28T07:29:21;19.42;;;10.30;;
7051;SDS011;3567;52.444;13.556;2023-02-28T07:31:46;15.95;;;10.38;;
7051;SDS011;3567;52.444;13.556;2023-02-28T07:34:14;17.70;;;10.32;;
7051;SDS011;3567;52.444;13.556;2023-02-28T07:36:40;14.60;;;9.32;;
7051;SDS011;3567;52.444;13.556;2023-02-28T07:39:05;14.95;;;9.05;;
7051;SDS011;3567;52.444;13.556;2023-02-28T07:41:31;17.95;;;9.85;;
7051;SDS011;3567;52.444;13.556;2023-02-28T07:43:59;16.17;;;8.90;;
7051;SDS011;3567;52.444;13.556;2023-02-28T07:46:25;15.45;;;7.38;;
7051;SDS011;3567;52.444;13.556;2023-02-28T07:48:51;15.93;;;5.57;;
7051;SDS011;3567;52.444;13.556;2023-02-28T07:51:17;9.05;;;5.00;;
7051;SDS011;3567;52.444;13.556;2023-02-28T07:53:43;8.48;;;5.70;;
7051;SDS011;3567;52.444;13.556;2023-02-28T07:56:08;9.88;;;5.18;;
7051;SDS011;3567;52.444;13.556;2023-02-28T07:58:35;9.90;;;5.72;;
7051;SDS011;3567;52.444;13.556;2023-02-28T08:01:05;9.43;;;5.18;;
7051;SDS011;3567;52.444;13.556;2023-02-28T08:03:31;8.75;;;4.93;;
7051;SDS011;3567;52.444;13.556;2023-02-28T08:05:57;8.70;;;4.60;;
7051;SDS011;3567;52.444;13.556;2023-02-28T08:08:22;10.07;;;6.25;;
7051;SDS011;3567;52.444;13.556;2023-02-28T08:10:48;7.88;;;4.93;;
7051;SDS011;3567;52.444;13.556;2023-02-28T08:13:13;9.07;;;4.35;;
7051;SDS011;3567;52.444;13.556;2023-02-28T08:15:40;11.00;;;5.00;;
7051;SDS011;3567;52.444;13.556;2023-02-28T08:18:07;8.45;;;4.82;;
7051;SDS011;3567;52.444;13.556;2023-02-28T08:20:32;7.57;;;4.93;;
7051;SDS011;3567;52.444;13.556;2023-02-28T08:22:58;12.50;;;4.93;;
7051;SDS011;3567;52.444;13.556;2023-02-28T08:25:23;7.43;;;4.70;;
7051;SDS011;3567;52.444;13.556;2023-02-28T08:27:50;7.60;;;4.53;;
7051;SDS011;3567;52.444;13.556;2023-02-28T08:30:17;6.40;;;3.90;;
7051;SDS011;3567;52.444;13.556;2023-02-28T08:32:42;5.68;;;3.58;;
7051;SDS011;3567;52.444;13.556;2023-02-28T08:35:07;8.20;;;3.53;;
7051;SDS011;3567;52.444;13.556;2023-02-28T08:37:34;8.85;;;3.92;;
7051;SDS011;3567;52.444;13.556;2023-02-28T08:39:59;5.15;;;2.58;;
7051;SDS011;3567;52.444;13.556;2023-02-28T08:42:25;6.53;;;3.80;;
7051;SDS011;3567;52.444;13.556;2023-02-28T08:44:50;3.88;;;2.92;;
7051;SDS011;3567;52.444;13.556;2023-02-28T08:47:15;5.47;;;3.08;;
7051;SDS011;3567;52.444;13.556;2023-02-28T08:49:41;5.25;;;3.28;;
7051;SDS011;3567;52.444;13.556;2023-02-28T08:52:06;3.70;;;2.70;;
7051;SDS011;3567;52.444;13.556;2023-02-28T08:54:32;3.47;;;3.17;;
7051;SDS011;3567;52.444;13.556;2023-02-28T08:56:58;5.25;;;3.05;;
7051;SDS011;3567;52.444;13.556;2023-02-28T08:59:23;4.70;;;3.63;;
7051;SDS011;3567;52.444;13.556;2023-02-28T09:01:49;8.68;;;3.53;;
7051;SDS011;3567;52.444;13.556;2023-02-28T09:04:14;5.57;;;3.40;;
7051;SDS011;3567;52.444;13.556;2023-02-28T09:06:39;5.65;;;3.00;;
7051;SDS011;3567;52.444;13.556;2023-02-28T09:09:05;4.88;;;3.00;;
7051;SDS011;3567;52.444;13.556;2023-02-28T09:11:32;5.05;;;3.03;;
7051;SDS011;3567;52.444;13.556;2023-02-28T09:13:59;3.97;;;2.72;;
7051;SDS011;3567;52.444;13.556;2023-02-28T09:16:25;8.40;;;3.05;;
7051;SDS011;3567;52.444;13.556;2023-02-28T09:18:51;6.10;;;2.95;;
7051;SDS011;3567;52.444;13.556;2023-02-28T09:21:17;5.15;;;3.63;;
7051;SDS011;3567;52.444;13.556;2023-02-28T09:23:44;5.38;;;3.17;;
7051;SDS011;3567;52.444;13.556;2023-02-28T09:26:15;6.10;;;2.95;;
7051;SDS011;3567;52.444;13.556;2023-02-28T09:28:45;3.85;;;3.03;;
7051;SDS011;3567;52.444;13.556;2023-02-28T09:31:15;6.88;;;2.60;;
7051;SDS011;3567;52.444;13.556;2023-02-28T09:33:45;3.97;;;2.78;;
7051;SDS011;3567;52.444;13.556;2023-02-28T09:36:11;3.40;;;3.08;;
7051;SDS011;3567;52.444;13.556;2023-02-28T09:38:37;2.88;;;1.95;;
7051;SDS011;3567;52.444;13.556;2023-02-28T09:41:04;5.53;;;2.83;;
7051;SDS011;3567;52.444;13.556;2023-02-28T09:43:37;3.10;;;2.08;;
7051;SDS011;3567;52.444;13.556;2023-02-28T09:46:20;17.48;;;9.40;;
7051;SDS011;3567;52.444;13.556;2023-02-28T09:48:46;14.68;;;8.23;;
7051;SDS011;3567;52.444;13.556;2023-02-28T09:51:27;4.30;;;1.98;;
7051;SDS011;3567;52.444;13.556;2023-02-28T09:53:58;2.05;;;1.50;;
7051;SDS011;3567;52.444;13.556;2023-02-28T09:56:25;3.13;;;1.33;;
7051;SDS011;3567;52.444;13.556;2023-02-28T10:07:00;1.63;;;1.13;;
7051;SDS011;3567;52.444;13.556;2023-02-28T10:09:32;2.05;;;1.38;;
7051;SDS011;3567;52.444;13.556;2023-02-28T10:12:03;1.73;;;1.33;;
7051;SDS011;3567;52.444;13.556;2023-02-28T10:14:31;5.15;;;1.33;;
7051;SDS011;3567;52.444;13.556;2023-02-28T10:16:59;1.45;;;1.27;;
7051;SDS011;3567;52.444;13.556;2023-02-28T10:19:35;1.08;;;0.98;;
7051;SDS011;3567;52.444;13.556;2023-02-28T10:22:12;2.15;;;1.40;;
7051;SDS011;3567;52.444;13.556;2023-02-28T10:24:46;4.78;;;1.83;;
7051;SDS011;3567;52.444;13.556;2023-02-28T10:29:45;4.65;;;1.77;;
7051;SDS011;3567;52.444;13.556;2023-02-28T10:32:17;2.53;;;1.67;;
7051;SDS011;3567;52.444;13.556;2023-02-28T10:34:44;3.28;;;1.70;;
7051;SDS011;3567;52.444;13.556;2023-02-28T10:37:16;3.60;;;1.60;;
7051;SDS011;3567;52.444;13.556;2023-02-28T10:39:45;1.92;;;1.30;;
7051;SDS011;3567;52.444;13.556;2023-02-28T10:42:45;2.35;;;1.25;;
7051;SDS011;3567;52.444;13.556;2023-02-28T10:47:39;2.42;;;1.75;;
7051;SDS011;3567;52.444;13.556;2023-02-28T10:53:06;1.35;;;1.25;;
7051;SDS011;3567;52.444;13.556;2023-02-28T10:55:39;3.05;;;1.27;;
7051;SDS011;3567;52.444;13.556;2023-02-28T10:58:15;3.28;;;1.65;;
7051;SDS011;3567;52.444;13.556;2023-02-28T11:00:46;1.75;;;1.52;;
7051;SDS011;3567;52.444;13.556;2023-02-28T11:03:31;4.63;;;2.05;;
7051;SDS011;3567;52.444;13.556;2023-02-28T11:06:03;3.85;;;1.63;;
7051;SDS011;3567;52.444;13.556;2023-02-28T11:08:31;4.40;;;1.40;;
7051;SDS011;3567;52.444;13.556;2023-02-28T11:11:06;1.95;;;1.65;;
7051;SDS011;3567;52.444;13.556;2023-02-28T11:13:33;2.45;;;1.63;;
7051;SDS011;3567;52.444;13.556;2023-02-28T11:16:04;5.28;;;1.65;;
7051;SDS011;3567;52.444;13.556;2023-02-28T11:21:05;4.32;;;1.95;;
7051;SDS011;3567;52.444;13.556;2023-02-28T11:23:32;3.35;;;1.25;;
7051;SDS011;3567;52.444;13.556;2023-02-28T11:26:01;3.53;;;1.40;;
7051;SDS011;3567;52.444;13.556;2023-02-28T11:28:37;1.85;;;1.67;;
7051;SDS011;3567;52.444;13.556;2023-02-28T11:36:20;3.33;;;1.83;;
7051;SDS011;3567;52.444;13.556;2023-02-28T11:38:51;2.15;;;1.55;;
7051;SDS011;3567;52.444;13.556;2023-02-28T11:41:21;2.10;;;1.90;;
7051;SDS011;3567;52.444;13.556;2023-02-28T11:46:49;2.33;;;1.80;;
7051;SDS011;3567;52.444;13.556;2023-02-28T11:52:19;3.58;;;1.60;;
7051;SDS011;3567;52.444;13.556;2023-02-28T11:57:49;4.07;;;2.30;;
7051;SDS011;3567;52.444;13.556;2023-02-28T12:06:05;1.75;;;1.42;;
7051;SDS011;3567;52.444;13.556;2023-02-28T12:11:44;2.45;;;2.13;;
7051;SDS011;3567;52.444;13.556;2023-02-28T12:20:54;3.37;;;2.10;;
7051;SDS011;3567;52.444;13.556;2023-02-28T12:28:51;1.92;;;1.73;;
7051;SDS011;3567;52.444;13.556;2023-02-28T12:31:24;1.92;;;1.58;;
7051;SDS011;3567;52.444;13.556;2023-02-28T12:33:54;2.53;;;2.20;;
7051;SDS011;3567;52.444;13.556;2023-02-28T12:36:24;2.55;;;1.80;;
7051;SDS011;3567;52.444;13.556;2023-02-28T12:39:01;2.78;;;1.45;;
7051;SDS011;3567;52.444;13.556;2023-02-28T12:41:42;2.67;;;1.95;;
7051;SDS011;3567;52.444;13.556;2023-02-28T12:44:21;2.13;;;1.92;;
7051;SDS011;3567;52.444;13.556;2023-02-28T12:47:09;4.45;;;2.10;;
7051;SDS011;3567;52.444;13.556;2023-02-28T12:52:04;5.13;;;1.95;;
7051;SDS011;3567;52.444;13.556;2023-02-28T12:58:01;1.70;;;1.55;;
7051;SDS011;3567;52.444;13.556;2023-02-28T13:00:37;3.35;;;1.83;;
7051;SDS011;3567;52.444;13.556;2023-02-28T13:05:50;2.65;;;1.90;;
7051;SDS011;3567;52.444;13.556;2023-02-28T13:08:37;2.75;;;2.10;;
7051;SDS011;3567;52.444;13.556;2023-02-28T13:11:38;2.30;;;1.75;;
7051;SDS011;3567;52.444;13.556;2023-02-28T13:14:05;2.55;;;1.50;;
7051;SDS011;3567;52.444;13.556;2023-02-28T13:17:01;18.65;;;12.75;;
7051;SDS011;3567;52.444;13.556;2023-02-28T13:19:29;2.97;;;2.53;;
7051;SDS011;3567;52.444;13.556;2023-02-28T13:21:57;5.22;;;2.22;;
7051;SDS011;3567;52.444;13.556;2023-02-28T13:27:20;2.20;;;1.65;;
7051;SDS011;3567;52.444;13.556;2023-02-28T13:29:49;4.03;;;2.22;;
7051;SDS011;3567;52.444;13.556;2023-02-28T13:39:57;2.50;;;1.88;;
7051;SDS011;3567;52.444;13.556;2023-02-28T13:42:34;1.85;;;1.75;;
7051;SDS011;3567;52.444;13.556;2023-02-28T13:47:37;2.95;;;1.77;;
7051;SDS011;3567;52.444;13.556;2023-02-28T13:55:57;2.85;;;1.75;;
7051;SDS011;3567;52.444;13.556;2023-02-28T13:58:39;2.97;;;1.83;;
7051;SDS011;3567;52.444;13.556;2023-02-28T14:01:28;2.03;;;1.75;;
7051;SDS011;3567;52.444;13.556;2023-02-28T14:06:50;3.10;;;2.22;;
7051;SDS011;3567;52.444;13.556;2023-02-28T14:11:50;3.53;;;1.80;;
7051;SDS011;3567;52.444;13.556;2023-02-28T14:17:12;3.17;;;2.03;;
7051;SDS011;3567;52.444;13.556;2023-02-28T14:19:41;2.50;;;2.30;;
7051;SDS011;3567;52.444;13.556;2023-02-28T14:37:44;2.67;;;2.35;;
7051;SDS011;3567;52.444;13.556;2023-02-28T14:40:21;4.00;;;2.50;;
7051;SDS011;3567;52.444;13.556;2023-02-28T14:42:59;6.32;;;3.00;;
7051;SDS011;3567;52.444;13.556;2023-02-28T14:45:30;3.22;;;2.33;;
7051;SDS011;3567;52.444;13.556;2023-02-28T14:47:57;3.10;;;2.40;;
7051;SDS011;3567;52.444;13.556;2023-02-28T14:50:26;6.55;;;2.55;;
7051;SDS011;3567;52.444;13.556;2023-02-28T14:52:55;4.03;;;2.35;;
7051;SDS011;3567;52.444;13.556;2023-02-28T14:55:43;4.38;;;1.95;;
7051;SDS011;3567;52.444;13.556;2023-02-28T14:58:20;2.30;;;1.92;;
7051;SDS011;3567;52.444;13.556;2023-02-28T15:00:48;3.00;;;2.13;;
7051;SDS011;3567;52.444;13.556;2023-02-28T15:05:56;3.08;;;2.53;;
7051;SDS011;3567;52.444;13.556;2023-02-28T15:08:23;3.42;;;2.42;;
7051;SDS011;3567;52.444;13.556;2023-02-28T15:10:56;3.00;;;2.20;;
7051;SDS011;3567;52.444;13.556;2023-02-28T15:18:53;5.07;;;2.40;;
7051;SDS011;3567;52.444;13.556;2023-02-28T15:21:23;3.97;;;2.40;;
7051;SDS011;3567;52.444;13.556;2023-02-28T15:24:13;4.68;;;2.15;;
7051;SDS011;3567;52.444;13.556;2023-02-28T15:26:42;5.03;;;1.63;;
7051;SDS011;3567;52.444;13.556;2023-02-28T15:29:20;4.78;;;2.35;;
7051;SDS011;3567;52.444;13.556;2023-02-28T15:32:00;4.07;;;1.85;;
7051;SDS011;3567;52.444;13.556;2023-02-28T15:34:43;5.10;;;2.08;;
7051;SDS011;3567;52.444;13.556;2023-02-28T15:40:27;2.08;;;1.77;;
7051;SDS011;3567;52.444;13.556;2023-02-28T15:45:33;1.98;;;1.70;;
7051;SDS011;3567;52.444;13.556;2023-02-28T15:48:04;1.73;;;1.63;;
7051;SDS011;3567;52.444;13.556;2023-02-28T15:50:30;3.00;;;2.13;;
7051;SDS011;3567;52.444;13.556;2023-02-28T15:52:56;3.78;;;2.15;;
7051;SDS011;3567;52.444;13.556;2023-02-28T15:55:23;4.28;;;2.15;;
7051;SDS011;3567;52.444;13.556;2023-02-28T15:57:52;3.72;;;2.55;;
7051;SDS011;3567;52.444;13.556;2023-02-28T16:00:21;3.28;;;2.67;;
7051;SDS011;3567;52.444;13.556;2023-02-28T16:02:48;2.10;;;1.90;;
7051;SDS011;3567;52.444;13.556;2023-02-28T16:07:53;5.72;;;2.20;;
7051;SDS011;3567;52.444;13.556;2023-02-28T16:10:20;5.07;;;2.67;;
7051;SDS011;3567;52.444;13.556;2023-02-28T16:12:50;3.83;;;2.58;;
7051;SDS011;3567;52.444;13.556;2023-02-28T16:17:52;5.22;;;2.70;;
7051;SDS011;3567;52.444;13.556;2023-02-28T16:20:20;4.13;;;2.20;;
7051;SDS011;3567;52.444;13.556;2023-02-28T16:22:47;4.93;;;2.50;;
7051;SDS011;3567;52.444;13.556;2023-02-28T16:25:13;3.67;;;2.28;;
7051;SDS011;3567;52.444;13.556;2023-02-28T16:27:40;3.03;;;2.22;;
7051;SDS011;3567;52.444;13.556;2023-02-28T16:30:07;5.18;;;3.95;;
7051;SDS011;3567;52.444;13.556;2023-02-28T16:32:40;3.92;;;2.30;;
7051;SDS011;3567;52.444;13.556;2023-02-28T16:35:05;3.63;;;2.60;;
7051;SDS011;3567;52.444;13.556;2023-02-28T16:37:35;4.20;;;2.38;;
7051;SDS011;3567;52.444;13.556;2023-02-28T16:40:00;3.40;;;2.75;;
7051;SDS011;3567;52.444;13.556;2023-02-28T16:42:26;4.57;;;2.58;;
7051;SDS011;3567;52.444;13.556;2023-02-28T16:44:53;4.18;;;2.92;;
7051;SDS011;3567;52.444;13.556;2023-02-28T16:47:20;8.70;;;2.70;;
7051;SDS011;3567;52.444;13.556;2023-02-28T16:49:46;3.40;;;2.70;;
7051;SDS011;3567;52.444;13.556;2023-02-28T16:52:12;4.97;;;2.75;;
7051;SDS011;3567;52.444;13.556;2023-02-28T16:54:38;5.28;;;2.90;;
7051;SDS011;3567;52.444;13.556;2023-02-28T16:57:04;5.68;;;2.65;;
7051;SDS011;3567;52.444;13.556;2023-02-28T16:59:31;3.45;;;2.50;;
7051;SDS011;3567;52.444;13.556;2023-02-28T17:01:57;5.90;;;3.00;;
7051;SDS011;3567;52.444;13.556;2023-02-28T17:04:23;7.07;;;2.92;;
7051;SDS011;3567;52.444;13.556;2023-02-28T17:06:51;5.18;;;3.13;;
7051;SDS011;3567;52.444;13.556;2023-02-28T17:09:18;5.75;;;3.10;;
7051;SDS011;3567;52.444;13.556;2023-02-28T17:11:47;4.93;;;2.97;;
7051;SDS011;3567;52.444;13.556;2023-02-28T17:14:13;6.72;;;2.78;;
7051;SDS011;3567;52.444;13.556;2023-02-28T17:16:39;5.55;;;3.58;;
7051;SDS011;3567;52.444;13.556;2023-02-28T17:19:06;4.78;;;3.10;;
7051;SDS011;3567;52.444;13.556;2023-02-28T17:21:36;6.43;;;3.60;;
7051;SDS011;3567;52.444;13.556;2023-02-28T17:24:01;5.63;;;3.33;;
7051;SDS011;3567;52.444;13.556;2023-02-28T17:26:27;8.27;;;3.70;;
7051;SDS011;3567;52.444;13.556;2023-02-28T17:28:53;5.60;;;3.60;;
7051;SDS011;3567;52.444;13.556;2023-02-28T17:31:21;7.75;;;3.97;;
7051;SDS011;3567;52.444;13.556;2023-02-28T17:33:46;6.93;;;4.10;;
7051;SDS011;3567;52.444;13.556;2023-02-28T17:36:20;6.25;;;3.85;;
7051;SDS011;3567;52.444;13.556;2023-02-28T17:38:48;7.63;;;3.50;;
7051;SDS011;3567;52.444;13.556;2023-02-28T17:41:14;6.38;;;3.70;;
7051;SDS011;3567;52.444;13.556;2023-02-28T17:43:39;7.05;;;3.90;;
7051;SDS011;3567;52.444;13.556;2023-02-28T17:46:05;5.32;;;3.60;;
7051;SDS011;3567;52.444;13.556;2023-02-28T17:48:39;6.10;;;3.78;;
7051;SDS011;3567;52.444;13.556;2023-02-28T17:51:04;11.85;;;5.47;;
7051;SDS011;3567;52.444;13.556;2023-02-28T17:53:29;7.45;;;4.78;;
7051;SDS011;3567;52.444;13.556;2023-02-28T17:55:55;7.18;;;4.50;;
7051;SDS011;3567;52.444;13.556;2023-02-28T17:58:20;8.07;;;4.18;;